sensor_id;sensor_type;location;lat;lon;timestamp;temperature;humidity
10354;DHT22;5223;50.924;13.338;2022-09-17T00:11:33;10.00;99.90
10354;DHT22;5223;50.924;13.338;2022-09-17T00:14:09;10.10;99.90
10354;DHT22;5223;50.924;13.338;2022-09-17T00:16:46;9.60;99.90
10354;DHT22;5223;50.924;13.338;2022-09-17T00:21:49;10.00;99.90
10354;DHT22;5223;50.924;13.338;2022-09-17T00:26:57;10.00;99.90
10354;DHT22;5223;50.924;13.338;2022-09-17T00:29:26;10.00;99.90
10354;DHT22;5223;50.924;13.338;2022-09-17T00:31:58;10.10;99.90
10354;DHT22;5223;50.924;13.338;2022-09-17T00:34:26;10.10;99.90
10354;DHT22;5223;50.924;13.338;2022-09-17T00:36:57;10.10;99.90
10354;DHT22;5223;50.924;13.338;2022-09-17T00:39:34;10.10;99.90
10354;DHT22;5223;50.924;13.338;2022-09-17T00:42:11;10.10;99.90
10354;DHT22;5223;50.924;13.338;2022-09-17T00:44:49;10.10;99.90
10354;DHT22;5223;50.924;13.338;2022-09-17T00:47:28;10.10;99.90
10354;DHT22;5223;50.924;13.338;2022-09-17T00:50:05;10.10;99.90
10354;DHT22;5223;50.924;13.338;2022-09-17T00:52:38;10.10;99.90
10354;DHT22;5223;50.924;13.338;2022-09-17T00:55:20;10.10;99.90
10354;DHT22;5223;50.924;13.338;2022-09-17T01:03:00;10.10;99.90
10354;DHT22;5223;50.924;13.338;2022-09-17T01:05:35;10.10;99.90
10354;DHT22;5223;50.924;13.338;2022-09-17T01:08:13;10.10;99.90
10354;DHT22;5223;50.924;13.338;2022-09-17T01:11:08;10.10;99.90
10354;DHT22;5223;50.924;13.338;2022-09-17T01:13:59;10.20;99.90
10354;DHT22;5223;50.924;13.338;2022-09-17T01:16:42;10.20;99.90
10354;DHT22;5223;50.924;13.338;2022-09-17T01:19:49;10.20;99.90
10354;DHT22;5223;50.924;13.338;2022-09-17T01:22:29;10.10;99.90
10354;DHT22;5223;50.924;13.338;2022-09-17T01:25:20;10.10;99.90
10354;DHT22;5223;50.924;13.338;2022-09-17T01:31:21;10.10;99.90
10354;DHT22;5223;50.924;13.338;2022-09-17T01:34:00;10.10;99.90
10354;DHT22;5223;50.924;13.338;2022-09-17T01:36:44;10.10;99.90
10354;DHT22;5223;50.924;13.338;2022-09-17T01:39:33;10.20;99.90
10354;DHT22;5223;50.924;13.338;2022-09-17T01:42:15;10.20;99.90
10354;DHT22;5223;50.924;13.338;2022-09-17T01:44:53;10.20;99.90
10354;DHT22;5223;50.924;13.338;2022-09-17T01:47:35;10.10;99.90
10354;DHT22;5223;50.924;13.338;2022-09-17T01:52:39;9.40;99.90
10354;DHT22;5223;50.924;13.338;2022-09-17T01:55:18;10.20;99.90
10354;DHT22;5223;50.924;13.338;2022-09-17T01:57:52;10.20;99.90
10354;DHT22;5223;50.924;13.338;2022-09-17T02:21:12;10.10;99.90
10354;DHT22;5223;50.924;13.338;2022-09-17T02:23:54;10.20;99.90
10354;DHT22;5223;50.924;13.338;2022-09-17T02:26:31;10.20;99.90
10354;DHT22;5223;50.924;13.338;2022-09-17T02:29:06;10.10;99.90
10354;DHT22;5223;50.924;13.338;2022-09-17T02:31:38;10.10;99.90
10354;DHT22;5223;50.924;13.338;2022-09-17T02:34:11;10.10;99.90
10354;DHT22;5223;50.924;13.338;2022-09-17T02:36:45;10.10;99.90
10354;DHT22;5223;50.924;13.338;2022-09-17T02:39:15;10.10;99.90
10354;DHT22;5223;50.924;13.338;2022-09-17T02:41:55;10.00;99.90
10354;DHT22;5223;50.924;13.338;2022-09-17T02:44:35;10.10;99.90
10354;DHT22;5223;50.924;13.338;2022-09-17T02:47:27;10.00;99.90
10354;DHT22;5223;50.924;13.338;2022-09-17T02:50:17;9.90;99.90
10354;DHT22;5223;50.924;13.338;2022-09-17T02:53:07;9.80;99.90
10354;DHT22;5223;50.924;13.338;2022-09-17T02:55:49;9.70;99.90
10354;DHT22;5223;50.924;13.338;2022-09-17T02:58:25;9.70;99.90
10354;DHT22;5223;50.924;13.338;2022-09-17T03:01:05;9.60;99.90
10354;DHT22;5223;50.924;13.338;2022-09-17T03:03:42;9.60;99.90
10354;DHT22;5223;50.924;13.338;2022-09-17T03:06:17;9.60;99.90
10354;DHT22;5223;50.924;13.338;2022-09-17T03:08:51;9.50;99.90
10354;DHT22;5223;50.924;13.338;2022-09-17T03:11:27;9.60;99.90
10354;DHT22;5223;50.924;13.338;2022-09-17T03:13:56;9.50;99.90
10354;DHT22;5223;50.924;13.338;2022-09-17T03:16:28;9.60;99.90
10354;DHT22;5223;50.924;13.338;2022-09-17T03:19:03;9.60;99.90
10354;DHT22;5223;50.924;13.338;2022-09-17T03:21:38;9.60;99.90
10354;DHT22;5223;50.924;13.338;2022-09-17T03:24:11;9.70;99.90
10354;DHT22;5223;50.924;13.338;2022-09-17T03:26:42;9.60;99.90
10354;DHT22;5223;50.924;13.338;2022-09-17T03:36:57;9.60;99.90
10354;DHT22;5223;50.924;13.338;2022-09-17T03:39:27;9.70;99.90
10354;DHT22;5223;50.924;13.338;2022-09-17T03:42:00;9.70;99.90
10354;DHT22;5223;50.924;13.338;2022-09-17T03:44:27;9.70;99.90
10354;DHT22;5223;50.924;13.338;2022-09-17T03:47:08;9.70;99.90
10354;DHT22;5223;50.924;13.338;2022-09-17T03:49:41;9.60;99.90
10354;DHT22;5223;50.924;13.338;2022-09-17T03:52:15;9.50;99.90
10354;DHT22;5223;50.924;13.338;2022-09-17T03:54:42;9.50;99.90
10354;DHT22;5223;50.924;13.338;2022-09-17T03:57:10;9.40;99.90
10354;DHT22;5223;50.924;13.338;2022-09-17T03:59:44;9.40;99.90
10354;DHT22;5223;50.924;13.338;2022-09-17T04:02:11;9.40;99.90
10354;DHT22;5223;50.924;13.338;2022-09-17T04:04:38;9.40;99.90
10354;DHT22;5223;50.924;13.338;2022-09-17T04:07:06;9.30;99.90
10354;DHT22;5223;50.924;13.338;2022-09-17T04:09:41;9.40;99.90
10354;DHT22;5223;50.924;13.338;2022-09-17T04:12:09;9.30;99.90
10354;DHT22;5223;50.924;13.338;2022-09-17T04:14:41;9.30;99.90
10354;DHT22;5223;50.924;13.338;2022-09-17T04:17:10;9.30;99.90
10354;DHT22;5223;50.924;13.338;2022-09-17T04:19:44;9.30;99.90
10354;DHT22;5223;50.924;13.338;2022-09-17T04:22:18;9.30;99.90
10354;DHT22;5223;50.924;13.338;2022-09-17T07:00:19;9.80;99.90
10354;DHT22;5223;50.924;13.338;2022-09-17T07:02:55;9.90;99.90
10354;DHT22;5223;50.924;13.338;2022-09-17T07:05:28;9.90;99.90
10354;DHT22;5223;50.924;13.338;2022-09-17T07:08:01;9.90;99.90
10354;DHT22;5223;50.924;13.338;2022-09-17T07:10:31;9.90;99.90
10354;DHT22;5223;50.924;13.338;2022-09-17T07:13:12;10.00;99.90
10354;DHT22;5223;50.924;13.338;2022-09-17T07:15:51;10.00;99.90
10354;DHT22;5223;50.924;13.338;2022-09-17T07:18:20;10.00;99.90
10354;DHT22;5223;50.924;13.338;2022-09-17T07:20:54;10.10;99.90
10354;DHT22;5223;50.924;13.338;2022-09-17T07:23:26;10.10;99.90
10354;DHT22;5223;50.924;13.338;2022-09-17T07:26:03;10.10;99.90
10354;DHT22;5223;50.924;13.338;2022-09-17T07:28:41;10.20;99.90
10354;DHT22;5223;50.924;13.338;2022-09-17T07:31:14;10.20;99.90
10354;DHT22;5223;50.924;13.338;2022-09-17T07:33:52;10.30;99.90
10354;DHT22;5223;50.924;13.338;2022-09-17T07:36:24;10.40;99.90
10354;DHT22;5223;50.924;13.338;2022-09-17T07:38:56;10.30;99.90
10354;DHT22;5223;50.924;13.338;2022-09-17T07:41:35;10.50;99.90
10354;DHT22;5223;50.924;13.338;2022-09-17T07:44:09;10.60;99.90
10354;DHT22;5223;50.924;13.338;2022-09-17T07:46:53;10.70;99.90
10354;DHT22;5223;50.924;13.338;2022-09-17T07:49:24;10.90;99.90
10354;DHT22;5223;50.924;13.338;2022-09-17T07:51:54;10.90;99.90
10354;DHT22;5223;50.924;13.338;2022-09-17T07:54:30;10.90;99.90
10354;DHT22;5223;50.924;13.338;2022-09-17T07:57:03;10.80;99.90
10354;DHT22;5223;50.924;13.338;2022-09-17T07:59:40;10.60;99.90
10354;DHT22;5223;50.924;13.338;2022-09-17T08:02:16;10.70;99.90
10354;DHT22;5223;50.924;13.338;2022-09-17T08:04:49;10.60;99.90
10354;DHT22;5223;50.924;13.338;2022-09-17T08:07:22;10.50;99.90
10354;DHT22;5223;50.924;13.338;2022-09-17T08:09:58;10.70;99.90
10354;DHT22;5223;50.924;13.338;2022-09-17T08:12:39;10.60;99.90
10354;DHT22;5223;50.924;13.338;2022-09-17T08:15:09;10.80;99.90
10354;DHT22;5223;50.924;13.338;2022-09-17T08:17:49;11.20;99.90
10354;DHT22;5223;50.924;13.338;2022-09-17T08:20:20;11.60;99.90
10354;DHT22;5223;50.924;13.338;2022-09-17T08:22:57;11.90;99.90
10354;DHT22;5223;50.924;13.338;2022-09-17T08:25:29;12.30;99.90
10354;DHT22;5223;50.924;13.338;2022-09-17T08:28:13;12.10;99.90
10354;DHT22;5223;50.924;13.338;2022-09-17T08:30:47;11.90;99.90
10354;DHT22;5223;50.924;13.338;2022-09-17T08:33:30;11.80;99.90
10354;DHT22;5223;50.924;13.338;2022-09-17T08:36:06;11.80;99.90
10354;DHT22;5223;50.924;13.338;2022-09-17T08:38:41;12.00;99.90
10354;DHT22;5223;50.924;13.338;2022-09-17T08:41:22;12.00;99.90
10354;DHT22;5223;50.924;13.338;2022-09-17T08:44:15;12.60;99.90
10354;DHT22;5223;50.924;13.338;2022-09-17T08:47:00;13.10;99.90
10354;DHT22;5223;50.924;13.338;2022-09-17T08:49:57;13.30;99.90
10354;DHT22;5223;50.924;13.338;2022-09-17T08:55:41;12.30;99.90
10354;DHT22;5223;50.924;13.338;2022-09-17T08:58:26;12.00;99.90
10354;DHT22;5223;50.924;13.338;2022-09-17T09:01:21;12.20;99.90
10354;DHT22;5223;50.924;13.338;2022-09-17T09:04:03;12.50;99.90
10354;DHT22;5223;50.924;13.338;2022-09-17T09:06:48;12.20;99.90
10354;DHT22;5223;50.924;13.338;2022-09-17T09:09:23;12.70;99.90
10354;DHT22;5223;50.924;13.338;2022-09-17T09:12:03;13.00;99.90
10354;DHT22;5223;50.924;13.338;2022-09-17T09:14:37;13.40;99.90
10354;DHT22;5223;50.924;13.338;2022-09-17T09:17:11;13.40;99.90
10354;DHT22;5223;50.924;13.338;2022-09-17T09:19:50;14.00;99.90
10354;DHT22;5223;50.924;13.338;2022-09-17T09:22:39;14.20;99.90
10354;DHT22;5223;50.924;13.338;2022-09-17T09:25:21;14.40;99.90
10354;DHT22;5223;50.924;13.338;2022-09-17T09:28:01;13.90;99.90
10354;DHT22;5223;50.924;13.338;2022-09-17T09:30:46;13.50;99.90
10354;DHT22;5223;50.924;13.338;2022-09-17T09:33:24;12.80;99.90
10354;DHT22;5223;50.924;13.338;2022-09-17T09:35:58;12.30;99.90
10354;DHT22;5223;50.924;13.338;2022-09-17T09:38:45;12.60;99.90
10354;DHT22;5223;50.924;13.338;2022-09-17T09:41:26;12.90;99.90
10354;DHT22;5223;50.924;13.338;2022-09-17T09:44:17;13.10;99.90
10354;DHT22;5223;50.924;13.338;2022-09-17T09:47:08;13.10;99.90
10354;DHT22;5223;50.924;13.338;2022-09-17T09:49:55;12.50;99.90
10354;DHT22;5223;50.924;13.338;2022-09-17T09:52:48;12.10;99.90
10354;DHT22;5223;50.924;13.338;2022-09-17T09:55:54;12.50;99.90
10354;DHT22;5223;50.924;13.338;2022-09-17T09:58:40;13.60;99.90
10354;DHT22;5223;50.924;13.338;2022-09-17T10:01:18;14.40;99.90
10354;DHT22;5223;50.924;13.338;2022-09-17T10:03:51;15.20;99.90
10354;DHT22;5223;50.924;13.338;2022-09-17T10:06:30;14.80;99.90
10354;DHT22;5223;50.924;13.338;2022-09-17T10:09:10;16.80;99.90
10354;DHT22;5223;50.924;13.338;2022-09-17T10:12:16;16.50;99.90
10354;DHT22;5223;50.924;13.338;2022-09-17T10:14:52;15.10;99.90
10354;DHT22;5223;50.924;13.338;2022-09-17T10:17:29;13.20;99.90
10354;DHT22;5223;50.924;13.338;2022-09-17T10:20:21;12.70;99.90
10354;DHT22;5223;50.924;13.338;2022-09-17T10:22:57;12.60;99.90
10354;DHT22;5223;50.924;13.338;2022-09-17T10:25:42;12.60;99.90
10354;DHT22;5223;50.924;13.338;2022-09-17T10:28:46;12.70;99.90
10354;DHT22;5223;50.924;13.338;2022-09-17T10:31:23;12.60;99.90
10354;DHT22;5223;50.924;13.338;2022-09-17T10:34:04;12.80;99.90
10354;DHT22;5223;50.924;13.338;2022-09-17T10:36:40;13.00;99.90
10354;DHT22;5223;50.924;13.338;2022-09-17T10:39:31;13.60;99.90
10354;DHT22;5223;50.924;13.338;2022-09-17T10:42:49;13.20;99.90
10354;DHT22;5223;50.924;13.338;2022-09-17T10:45:32;13.50;99.90
10354;DHT22;5223;50.924;13.338;2022-09-17T10:48:15;13.60;99.90
10354;DHT22;5223;50.924;13.338;2022-09-17T10:50:54;14.30;99.90
10354;DHT22;5223;50.924;13.338;2022-09-17T10:53:29;15.70;99.90
10354;DHT22;5223;50.924;13.338;2022-09-17T10:56:14;15.80;99.90
10354;DHT22;5223;50.924;13.338;2022-09-17T10:59:10;14.70;99.90
10354;DHT22;5223;50.924;13.338;2022-09-17T11:01:56;13.80;99.90
10354;DHT22;5223;50.924;13.338;2022-09-17T11:04:44;13.40;99.90
10354;DHT22;5223;50.924;13.338;2022-09-17T11:07:38;12.30;99.90
10354;DHT22;5223;50.924;13.338;2022-09-17T11:10:17;12.10;99.90
10354;DHT22;5223;50.924;13.338;2022-09-17T11:13:07;12.40;99.90
10354;DHT22;5223;50.924;13.338;2022-09-17T11:16:06;12.90;99.90
10354;DHT22;5223;50.924;13.338;2022-09-17T11:18:44;13.50;99.90
10354;DHT22;5223;50.924;13.338;2022-09-17T11:21:35;13.60;99.90
10354;DHT22;5223;50.924;13.338;2022-09-17T11:27:47;13.10;99.90
10354;DHT22;5223;50.924;13.338;2022-09-17T11:30:46;13.50;99.90
10354;DHT22;5223;50.924;13.338;2022-09-17T11:34:09;13.90;99.90
10354;DHT22;5223;50.924;13.338;2022-09-17T11:36:51;13.90;99.90
10354;DHT22;5223;50.924;13.338;2022-09-17T11:39:27;14.20;99.90
10354;DHT22;5223;50.924;13.338;2022-09-17T11:42:11;14.40;99.90
10354;DHT22;5223;50.924;13.338;2022-09-17T11:44:50;14.60;99.90
10354;DHT22;5223;50.924;13.338;2022-09-17T11:47:43;14.10;99.90
10354;DHT22;5223;50.924;13.338;2022-09-17T11:50:28;13.10;99.90
10354;DHT22;5223;50.924;13.338;2022-09-17T11:53:14;12.40;99.90
10354;DHT22;5223;50.924;13.338;2022-09-17T11:55:54;12.00;99.90
10354;DHT22;5223;50.924;13.338;2022-09-17T11:58:37;11.60;99.90
10354;DHT22;5223;50.924;13.338;2022-09-17T12:01:24;11.40;99.90
10354;DHT22;5223;50.924;13.338;2022-09-17T12:03:56;11.60;99.90
10354;DHT22;5223;50.924;13.338;2022-09-17T12:06:58;11.80;99.90
10354;DHT22;5223;50.924;13.338;2022-09-17T12:09:32;12.30;99.90
10354;DHT22;5223;50.924;13.338;2022-09-17T12:12:18;14.00;99.90
10354;DHT22;5223;50.924;13.338;2022-09-17T12:15:05;15.10;99.90
10354;DHT22;5223;50.924;13.338;2022-09-17T12:17:40;16.40;99.90
10354;DHT22;5223;50.924;13.338;2022-09-17T12:20:26;16.60;99.90
10354;DHT22;5223;50.924;13.338;2022-09-17T12:23:13;16.60;99.90
10354;DHT22;5223;50.924;13.338;2022-09-17T12:26:08;15.40;99.90
10354;DHT22;5223;50.924;13.338;2022-09-17T12:28:50;14.80;99.90
10354;DHT22;5223;50.924;13.338;2022-09-17T12:31:31;16.50;99.90
10354;DHT22;5223;50.924;13.338;2022-09-17T12:34:25;16.50;99.90
10354;DHT22;5223;50.924;13.338;2022-09-17T12:37:07;15.80;99.90
10354;DHT22;5223;50.924;13.338;2022-09-17T12:40:07;16.00;99.90
10354;DHT22;5223;50.924;13.338;2022-09-17T12:43:05;16.00;99.90
10354;DHT22;5223;50.924;13.338;2022-09-17T12:45:50;15.30;99.90
10354;DHT22;5223;50.924;13.338;2022-09-17T12:51:56;14.80;99.90
10354;DHT22;5223;50.924;13.338;2022-09-17T12:54:46;14.50;99.90
10354;DHT22;5223;50.924;13.338;2022-09-17T12:57:38;14.60;99.90
10354;DHT22;5223;50.924;13.338;2022-09-17T13:00:13;14.70;99.90
10354;DHT22;5223;50.924;13.338;2022-09-17T13:02:49;14.20;99.90
10354;DHT22;5223;50.924;13.338;2022-09-17T13:08:46;14.10;99.90
10354;DHT22;5223;50.924;13.338;2022-09-17T13:11:48;14.30;99.90
10354;DHT22;5223;50.924;13.338;2022-09-17T13:17:52;15.60;99.90
10354;DHT22;5223;50.924;13.338;2022-09-17T13:20:30;15.70;99.90
10354;DHT22;5223;50.924;13.338;2022-09-17T13:23:05;15.40;99.90
10354;DHT22;5223;50.924;13.338;2022-09-17T13:25:49;15.40;99.90
10354;DHT22;5223;50.924;13.338;2022-09-17T13:28:19;14.70;99.90
10354;DHT22;5223;50.924;13.338;2022-09-17T13:31:00;14.10;99.90
10354;DHT22;5223;50.924;13.338;2022-09-17T13:33:56;13.80;99.90
10354;DHT22;5223;50.924;13.338;2022-09-17T13:36:43;14.50;99.90
10354;DHT22;5223;50.924;13.338;2022-09-17T13:39:41;15.80;99.90
10354;DHT22;5223;50.924;13.338;2022-09-17T13:42:14;16.60;99.90
10354;DHT22;5223;50.924;13.338;2022-09-17T13:45:01;16.70;99.90
10354;DHT22;5223;50.924;13.338;2022-09-17T13:47:51;16.80;99.90
10354;DHT22;5223;50.924;13.338;2022-09-17T13:50:36;16.60;99.90
10354;DHT22;5223;50.924;13.338;2022-09-17T13:53:15;16.60;99.90
10354;DHT22;5223;50.924;13.338;2022-09-17T13:55:52;15.50;99.90
10354;DHT22;5223;50.924;13.338;2022-09-17T13:58:24;15.30;99.90
10354;DHT22;5223;50.924;13.338;2022-09-17T14:00:59;15.30;99.90
10354;DHT22;5223;50.924;13.338;2022-09-17T14:03:53;15.20;99.90
10354;DHT22;5223;50.924;13.338;2022-09-17T14:06:51;15.40;99.90
10354;DHT22;5223;50.924;13.338;2022-09-17T14:09:52;15.20;99.90
10354;DHT22;5223;50.924;13.338;2022-09-17T14:12:58;15.00;99.90
10354;DHT22;5223;50.924;13.338;2022-09-17T14:15:55;14.70;99.90
10354;DHT22;5223;50.924;13.338;2022-09-17T14:18:41;14.50;99.90
10354;DHT22;5223;50.924;13.338;2022-09-17T14:21:26;14.20;99.90
10354;DHT22;5223;50.924;13.338;2022-09-17T14:24:19;14.30;99.90
10354;DHT22;5223;50.924;13.338;2022-09-17T14:27:11;14.40;99.90
10354;DHT22;5223;50.924;13.338;2022-09-17T14:30:00;14.40;99.90
10354;DHT22;5223;50.924;13.338;2022-09-17T14:32:38;14.50;99.90
10354;DHT22;5223;50.924;13.338;2022-09-17T14:35:16;14.80;99.90
10354;DHT22;5223;50.924;13.338;2022-09-17T14:37:53;14.70;99.90
10354;DHT22;5223;50.924;13.338;2022-09-17T14:40:29;14.40;99.90
10354;DHT22;5223;50.924;13.338;2022-09-17T14:43:02;14.10;99.90
10354;DHT22;5223;50.924;13.338;2022-09-17T14:45:41;14.20;99.90
10354;DHT22;5223;50.924;13.338;2022-09-17T14:48:25;14.30;99.90
10354;DHT22;5223;50.924;13.338;2022-09-17T14:51:27;15.00;99.90
10354;DHT22;5223;50.924;13.338;2022-09-17T14:54:23;16.20;98.20
10354;DHT22;5223;50.924;13.338;2022-09-17T14:57:21;16.40;96.20
10354;DHT22;5223;50.924;13.338;2022-09-17T14:59:56;16.30;96.00
10354;DHT22;5223;50.924;13.338;2022-09-17T15:02:34;16.40;95.40
10354;DHT22;5223;50.924;13.338;2022-09-17T15:05:16;16.10;96.40
10354;DHT22;5223;50.924;13.338;2022-09-17T15:07:46;16.10;96.30
10354;DHT22;5223;50.924;13.338;2022-09-17T15:10:28;15.90;96.50
10354;DHT22;5223;50.924;13.338;2022-09-17T15:13:08;16.10;97.20
10354;DHT22;5223;50.924;13.338;2022-09-17T15:15:58;15.60;97.80
10354;DHT22;5223;50.924;13.338;2022-09-17T15:18:34;15.60;97.50
10354;DHT22;5223;50.924;13.338;2022-09-17T15:21:20;15.30;97.90
10354;DHT22;5223;50.924;13.338;2022-09-17T15:24:01;14.70;99.80
10354;DHT22;5223;50.924;13.338;2022-09-17T15:26:36;14.60;99.90
10354;DHT22;5223;50.924;13.338;2022-09-17T15:29:23;14.50;99.50
10354;DHT22;5223;50.924;13.338;2022-09-17T15:32:02;14.10;99.90
10354;DHT22;5223;50.924;13.338;2022-09-17T15:34:44;13.90;99.90
10354;DHT22;5223;50.924;13.338;2022-09-17T15:37:19;13.70;99.90
10354;DHT22;5223;50.924;13.338;2022-09-17T15:39:52;13.70;99.90
10354;DHT22;5223;50.924;13.338;2022-09-17T15:42:32;13.50;99.90
10354;DHT22;5223;50.924;13.338;2022-09-17T15:45:27;13.30;99.90
10354;DHT22;5223;50.924;13.338;2022-09-17T15:47:57;13.30;99.90
10354;DHT22;5223;50.924;13.338;2022-09-17T15:50:31;13.10;99.90
10354;DHT22;5223;50.924;13.338;2022-09-17T15:53:19;13.20;99.90
10354;DHT22;5223;50.924;13.338;2022-09-17T15:56:05;13.20;99.90
10354;DHT22;5223;50.924;13.338;2022-09-17T15:58:52;13.10;99.90
10354;DHT22;5223;50.924;13.338;2022-09-17T16:04:32;12.70;99.90
10354;DHT22;5223;50.924;13.338;2022-09-17T16:07:27;12.60;99.90
10354;DHT22;5223;50.924;13.338;2022-09-17T16:10:01;12.60;99.90
10354;DHT22;5223;50.924;13.338;2022-09-17T16:12:34;12.40;99.90
10354;DHT22;5223;50.924;13.338;2022-09-17T16:15:05;12.50;99.90
10354;DHT22;5223;50.924;13.338;2022-09-17T16:17:41;12.50;99.90
10354;DHT22;5223;50.924;13.338;2022-09-17T16:20:20;12.50;99.90
10354;DHT22;5223;50.924;13.338;2022-09-17T16:22:52;12.70;99.90
10354;DHT22;5223;50.924;13.338;2022-09-17T16:25:23;12.70;99.90
10354;DHT22;5223;50.924;13.338;2022-09-17T16:27:56;12.70;99.90
10354;DHT22;5223;50.924;13.338;2022-09-17T16:30:30;12.70;99.90
10354;DHT22;5223;50.924;13.338;2022-09-17T16:33:02;12.70;99.90
10354;DHT22;5223;50.924;13.338;2022-09-17T16:35:42;12.70;99.90
10354;DHT22;5223;50.924;13.338;2022-09-17T16:38:11;12.60;99.90
10354;DHT22;5223;50.924;13.338;2022-09-17T16:40:44;12.70;99.90
10354;DHT22;5223;50.924;13.338;2022-09-17T16:43:14;12.70;99.90
10354;DHT22;5223;50.924;13.338;2022-09-17T16:45:57;12.50;99.90
10354;DHT22;5223;50.924;13.338;2022-09-17T16:48:25;12.40;99.90
10354;DHT22;5223;50.924;13.338;2022-09-17T16:51:02;12.30;99.90
10354;DHT22;5223;50.924;13.338;2022-09-17T16:53:35;12.20;99.90
10354;DHT22;5223;50.924;13.338;2022-09-17T16:56:07;12.10;99.90
10354;DHT22;5223;50.924;13.338;2022-09-17T16:58:41;12.00;99.90
10354;DHT22;5223;50.924;13.338;2022-09-17T17:01:10;11.90;99.90
10354;DHT22;5223;50.924;13.338;2022-09-17T17:03:41;11.80;99.90
10354;DHT22;5223;50.924;13.338;2022-09-17T17:06:21;11.70;99.90
10354;DHT22;5223;50.924;13.338;2022-09-17T17:09:00;11.60;99.90
10354;DHT22;5223;50.924;13.338;2022-09-17T17:11:36;11.50;99.90
10354;DHT22;5223;50.924;13.338;2022-09-17T17:14:17;11.40;99.90
10354;DHT22;5223;50.924;13.338;2022-09-17T17:16:58;11.20;99.90
10354;DHT22;5223;50.924;13.338;2022-09-17T17:19:27;11.10;99.90
10354;DHT22;5223;50.924;13.338;2022-09-17T17:22:00;10.90;99.90
10354;DHT22;5223;50.924;13.338;2022-09-17T17:24:27;10.80;99.90
10354;DHT22;5223;50.924;13.338;2022-09-17T17:27:07;10.70;99.90
10354;DHT22;5223;50.924;13.338;2022-09-17T17:29:41;10.70;99.90
10354;DHT22;5223;50.924;13.338;2022-09-17T17:32:15;10.60;99.90
10354;DHT22;5223;50.924;13.338;2022-09-17T17:34:45;10.50;99.90
10354;DHT22;5223;50.924;13.338;2022-09-17T17:37:21;10.40;99.90
10354;DHT22;5223;50.924;13.338;2022-09-17T17:39:51;10.30;99.90
10354;DHT22;5223;50.924;13.338;2022-09-17T17:42:22;10.20;99.90
10354;DHT22;5223;50.924;13.338;2022-09-17T17:44:51;10.20;99.90
10354;DHT22;5223;50.924;13.338;2022-09-17T17:47:20;10.10;99.90
10354;DHT22;5223;50.924;13.338;2022-09-17T17:49:51;10.00;99.90
10354;DHT22;5223;50.924;13.338;2022-09-17T17:52:25;10.00;99.90
10354;DHT22;5223;50.924;13.338;2022-09-17T17:54:57;10.00;99.90
10354;DHT22;5223;50.924;13.338;2022-09-17T17:57:26;10.00;99.90
10354;DHT22;5223;50.924;13.338;2022-09-17T17:59:55;10.00;99.90
10354;DHT22;5223;50.924;13.338;2022-09-17T18:02:29;10.00;99.90
10354;DHT22;5223;50.924;13.338;2022-09-17T18:04:57;9.90;99.90
10354;DHT22;5223;50.924;13.338;2022-09-17T18:07:27;9.80;99.90
10354;DHT22;5223;50.924;13.338;2022-09-17T18:09:59;9.80;99.90
10354;DHT22;5223;50.924;13.338;2022-09-17T18:12:27;9.60;99.90
10354;DHT22;5223;50.924;13.338;2022-09-17T18:14:57;9.50;99.90
10354;DHT22;5223;50.924;13.338;2022-09-17T18:17:29;9.50;99.90
10354;DHT22;5223;50.924;13.338;2022-09-17T18:20:07;9.50;99.90
10354;DHT22;5223;50.924;13.338;2022-09-17T18:22:40;9.40;99.90
10354;DHT22;5223;50.924;13.338;2022-09-17T18:25:09;9.40;99.90
10354;DHT22;5223;50.924;13.338;2022-09-17T18:27:41;9.50;99.90
10354;DHT22;5223;50.924;13.338;2022-09-17T18:30:12;9.50;99.90
10354;DHT22;5223;50.924;13.338;2022-09-17T18:32:42;9.50;99.90
10354;DHT22;5223;50.924;13.338;2022-09-17T18:35:13;9.60;99.90
10354;DHT22;5223;50.924;13.338;2022-09-17T18:37:47;9.70;99.90
10354;DHT22;5223;50.924;13.338;2022-09-17T18:40:16;9.80;99.90
10354;DHT22;5223;50.924;13.338;2022-09-17T18:42:57;9.80;99.90
10354;DHT22;5223;50.924;13.338;2022-09-17T18:45:25;9.90;99.90
10354;DHT22;5223;50.924;13.338;2022-09-17T18:47:55;9.90;99.90
10354;DHT22;5223;50.924;13.338;2022-09-17T18:50:24;10.00;99.90
10354;DHT22;5223;50.924;13.338;2022-09-17T18:52:56;10.10;99.90
10354;DHT22;5223;50.924;13.338;2022-09-17T18:55:27;10.10;99.90
10354;DHT22;5223;50.924;13.338;2022-09-17T18:57:58;10.10;99.90
10354;DHT22;5223;50.924;13.338;2022-09-17T19:00:27;10.20;99.90
10354;DHT22;5223;50.924;13.338;2022-09-17T19:02:57;10.20;99.90
10354;DHT22;5223;50.924;13.338;2022-09-17T19:05:28;10.20;99.90
10354;DHT22;5223;50.924;13.338;2022-09-17T19:08:01;10.20;99.90
10354;DHT22;5223;50.924;13.338;2022-09-17T19:10:31;10.30;99.90
10354;DHT22;5223;50.924;13.338;2022-09-17T19:13:03;10.20;99.90
10354;DHT22;5223;50.924;13.338;2022-09-17T19:15:34;10.10;99.90
10354;DHT22;5223;50.924;13.338;2022-09-17T19:18:01;9.80;99.90
10354;DHT22;5223;50.924;13.338;2022-09-17T19:20:32;9.50;99.90
10354;DHT22;5223;50.924;13.338;2022-09-17T19:23:12;9.10;99.90
10354;DHT22;5223;50.924;13.338;2022-09-17T19:25:42;8.90;99.90
10354;DHT22;5223;50.924;13.338;2022-09-17T19:28:11;8.80;99.90
10354;DHT22;5223;50.924;13.338;2022-09-17T19:30:39;8.60;99.90
10354;DHT22;5223;50.924;13.338;2022-09-17T19:33:08;8.60;99.90
10354;DHT22;5223;50.924;13.338;2022-09-17T19:35:35;8.50;99.90
10354;DHT22;5223;50.924;13.338;2022-09-17T19:38:12;8.60;99.90
10354;DHT22;5223;50.924;13.338;2022-09-17T19:40:43;8.60;99.90
10354;DHT22;5223;50.924;13.338;2022-09-17T19:43:24;8.60;99.90
10354;DHT22;5223;50.924;13.338;2022-09-17T19:45:59;8.60;99.90
10354;DHT22;5223;50.924;13.338;2022-09-17T19:48:44;8.70;99.90
10354;DHT22;5223;50.924;13.338;2022-09-17T19:51:13;8.60;99.90
10354;DHT22;5223;50.924;13.338;2022-09-17T19:53:51;8.70;99.90
10354;DHT22;5223;50.924;13.338;2022-09-17T19:56:25;8.60;99.90
10354;DHT22;5223;50.924;13.338;2022-09-17T19:58:57;8.70;99.90
10354;DHT22;5223;50.924;13.338;2022-09-17T20:01:26;8.70;99.90
10354;DHT22;5223;50.924;13.338;2022-09-17T20:03:53;8.70;99.90
10354;DHT22;5223;50.924;13.338;2022-09-17T20:06:30;8.70;99.90
10354;DHT22;5223;50.924;13.338;2022-09-17T20:09:06;8.60;99.90
10354;DHT22;5223;50.924;13.338;2022-09-17T20:11:37;8.50;99.90
10354;DHT22;5223;50.924;13.338;2022-09-17T20:14:10;8.60;99.90
10354;DHT22;5223;50.924;13.338;2022-09-17T20:16:42;8.60;99.90
10354;DHT22;5223;50.924;13.338;2022-09-17T20:19:15;8.60;99.90
10354;DHT22;5223;50.924;13.338;2022-09-17T20:21:47;8.60;99.90
10354;DHT22;5223;50.924;13.338;2022-09-17T20:24:27;8.60;99.90
10354;DHT22;5223;50.924;13.338;2022-09-17T20:27:00;8.60;99.90
10354;DHT22;5223;50.924;13.338;2022-09-17T20:29:27;8.60;99.90
10354;DHT22;5223;50.924;13.338;2022-09-17T20:32:04;8.50;99.90
10354;DHT22;5223;50.924;13.338;2022-09-17T20:34:39;8.50;99.90
10354;DHT22;5223;50.924;13.338;2022-09-17T20:37:18;8.50;99.90